createdAt,value
2022-08-27T00:00:30.710Z,389.05
2022-08-27T00:03:19.253Z,385.83
2022-08-27T00:06:07.619Z,382.92
2022-08-27T00:08:58.249Z,397.90
2022-08-27T00:11:46.311Z,378.42
2022-08-27T00:14:34.383Z,380.48
2022-08-27T00:17:22.453Z,352.65
2022-08-27T00:20:11.120Z,360.95
2022-08-27T00:22:59.124Z,370.88
2022-08-27T00:25:48.404Z,349.42
2022-08-27T00:28:36.472Z,385.55
2022-08-27T00:31:27.242Z,360.00
2022-08-27T00:34:15.717Z,370.17
2022-08-27T00:37:03.860Z,366.27
2022-08-27T00:39:52.143Z,358.90
2022-08-27T00:42:42.411Z,358.63
2022-08-27T00:45:33.903Z,346.05
2022-08-27T00:48:25.212Z,349.42
2022-08-27T00:51:13.265Z,349.08
2022-08-27T00:54:02.463Z,348.48
2022-08-27T00:56:51.828Z,342.23
2022-08-27T00:59:43.749Z,344.77
2022-08-27T01:02:32.060Z,341.63
2022-08-27T01:05:25.411Z,332.23
2022-08-27T01:08:18.440Z,354.67
2022-08-27T01:11:07.413Z,352.92
2022-08-27T01:14:05.053Z,333.77
2022-08-27T01:16:56.970Z,351.77
2022-08-27T01:19:48.087Z,342.15
2022-08-27T01:22:45.317Z,331.58
2022-08-27T01:25:34.768Z,330.88
2022-08-27T01:28:23.528Z,335.23
2022-08-27T01:31:15.047Z,329.38
2022-08-27T01:34:06.041Z,334.13
2022-08-27T01:36:57.290Z,330.88
2022-08-27T01:39:45.943Z,346.85
2022-08-27T01:42:41.452Z,329.30
2022-08-27T01:45:32.437Z,346.55
2022-08-27T01:48:22.224Z,325.13
2022-08-27T01:51:10.774Z,333.83
2022-08-27T01:53:58.939Z,317.20
2022-08-27T01:56:46.909Z,333.95
2022-08-27T01:59:39.567Z,323.73
2022-08-27T02:02:28.057Z,335.02
2022-08-27T02:05:16.655Z,309.98
2022-08-27T02:08:04.896Z,318.05
2022-08-27T02:10:53.098Z,314.77
2022-08-27T02:13:41.123Z,313.70
2022-08-27T02:16:31.806Z,315.58
2022-08-27T02:19:21.737Z,303.90
2022-08-27T02:22:10.042Z,320.25
2022-08-27T02:24:57.959Z,313.73
2022-08-27T02:27:45.952Z,305.40
2022-08-27T02:30:35.525Z,308.95
2022-08-27T02:33:24.843Z,304.90
2022-08-27T02:36:13.593Z,296.17
2022-08-27T02:39:01.611Z,298.80
2022-08-27T02:41:49.952Z,302.05
2022-08-27T02:44:37.963Z,310.67
2022-08-27T02:47:26.143Z,320.42
2022-08-27T02:50:15.686Z,307.83
2022-08-27T02:53:06.166Z,305.33
2022-08-27T02:55:54.552Z,300.50
2022-08-27T02:58:42.537Z,299.90
2022-08-27T03:01:30.725Z,289.13
2022-08-27T03:04:19.844Z,303.77
2022-08-27T03:07:18.817Z,311.08
2022-08-27T03:10:08.598Z,296.83
2022-08-27T03:12:57.158Z,290.35
2022-08-27T03:15:45.708Z,305.52
2022-08-27T03:18:34.693Z,298.70
2022-08-27T03:21:25.177Z,314.88
2022-08-27T03:24:14.555Z,310.02
2022-08-27T03:27:03.229Z,305.70
2022-08-27T03:29:51.242Z,297.30
2022-08-27T03:32:40.060Z,298.45
2022-08-27T03:35:28.139Z,289.45
2022-08-27T03:38:18.081Z,282.58
2022-08-27T03:41:07.779Z,298.83
2022-08-27T03:43:56.762Z,288.75
2022-08-27T03:46:44.915Z,297.20
2022-08-27T03:49:32.932Z,313.67
2022-08-27T03:52:21.058Z,300.55
2022-08-27T03:55:10.211Z,304.52
2022-08-27T03:58:01.622Z,309.30
2022-08-27T04:00:49.653Z,316.63
2022-08-27T04:03:38.352Z,315.10
2022-08-27T04:06:26.383Z,324.08
2022-08-27T04:09:14.496Z,310.30
2022-08-27T04:12:02.686Z,308.70
2022-08-27T04:14:52.041Z,300.73
2022-08-27T04:17:40.319Z,283.75
2022-08-27T04:20:36.267Z,271.73
2022-08-27T04:23:24.290Z,279.13
2022-08-27T04:26:12.726Z,268.08
2022-08-27T04:29:00.732Z,284.83
2022-08-27T04:31:50.150Z,279.92
2022-08-27T04:34:38.185Z,278.92
2022-08-27T04:37:27.705Z,261.00
2022-08-27T04:40:15.836Z,252.98
2022-08-27T04:43:03.841Z,252.52
2022-08-27T04:45:52.125Z,247.85
2022-08-27T04:48:41.657Z,254.25
2022-08-27T04:51:31.149Z,268.80
2022-08-27T04:54:19.221Z,254.77
2022-08-27T04:57:14.011Z,243.40
2022-08-27T05:00:01.963Z,229.73
2022-08-27T05:02:49.979Z,241.73
2022-08-27T05:05:41.571Z,244.98
2022-08-27T05:08:31.471Z,232.88
2022-08-27T05:11:21.414Z,239.77
2022-08-27T05:14:13.378Z,241.73
2022-08-27T05:17:01.369Z,247.98
2022-08-27T05:19:49.449Z,225.90
2022-08-27T05:22:39.577Z,232.25
2022-08-27T05:25:28.488Z,230.43
2022-08-27T05:28:18.491Z,226.13
2022-08-27T05:31:12.554Z,218.93
2022-08-27T05:34:01.297Z,216.52
2022-08-27T05:36:49.605Z,230.63
2022-08-27T05:39:39.127Z,229.43
2022-08-27T05:42:27.234Z,225.13
2022-08-27T05:45:17.059Z,209.50
2022-08-27T05:48:05.007Z,223.88
2022-08-27T05:50:53.326Z,225.68
2022-08-27T05:53:41.977Z,225.75
2022-08-27T05:56:35.179Z,219.45
2022-08-27T05:59:40.893Z,220.07
2022-08-27T06:02:29.276Z,220.05
2022-08-27T06:05:17.746Z,213.95
2022-08-27T06:08:05.909Z,224.15
2022-08-27T06:10:53.841Z,210.27
2022-08-27T06:13:43.539Z,213.63
2022-08-27T06:16:32.548Z,205.65
2022-08-27T06:19:20.663Z,216.38
2022-08-27T06:22:10.399Z,226.55
2022-08-27T06:24:58.725Z,233.93
2022-08-27T06:27:46.886Z,239.00
2022-08-27T06:30:36.482Z,237.80
2022-08-27T06:33:24.497Z,248.43
2022-08-27T06:36:15.495Z,250.85
2022-08-27T06:39:03.673Z,252.45
2022-08-27T06:41:51.946Z,243.95
2022-08-27T06:44:42.932Z,248.48
2022-08-27T06:47:34.313Z,256.92
2022-08-27T06:50:26.697Z,251.63
2022-08-27T06:53:15.594Z,248.13
2022-08-27T06:56:05.001Z,228.55
2022-08-27T06:58:54.010Z,223.63
2022-08-27T07:01:44.832Z,230.32
2022-08-27T07:04:34.263Z,218.63
2022-08-27T07:07:32.659Z,224.77
2022-08-27T07:10:24.793Z,215.32
2022-08-27T07:13:12.892Z,214.18
2022-08-27T07:16:06.405Z,192.07
2022-08-27T07:18:56.665Z,199.27
2022-08-27T07:21:48.813Z,193.38
2022-08-27T07:24:37.521Z,194.23
2022-08-27T07:27:25.556Z,188.68
2022-08-27T07:30:15.317Z,208.88
2022-08-27T07:33:03.433Z,204.40
2022-08-27T07:35:52.014Z,194.15
2022-08-27T07:38:41.404Z,222.93
2022-08-27T07:41:31.889Z,223.82
2022-08-27T07:44:26.057Z,245.57
2022-08-27T07:47:14.439Z,250.25
2022-08-27T07:50:02.455Z,256.23
2022-08-27T07:52:50.866Z,258.92
2022-08-27T07:55:40.352Z,243.68
2022-08-27T07:58:28.287Z,230.77
2022-08-27T08:01:17.836Z,241.82
2022-08-27T08:04:05.891Z,227.07
2022-08-27T08:06:55.419Z,240.90
2022-08-27T08:09:43.411Z,236.13
2022-08-27T08:12:32.688Z,226.07
2022-08-27T08:15:21.270Z,200.45
2022-08-27T08:18:09.373Z,210.50
2022-08-27T08:21:01.654Z,194.65
2022-08-27T08:23:49.968Z,194.60
2022-08-27T08:26:37.966Z,188.70
2022-08-27T08:29:27.312Z,180.70
2022-08-27T08:32:15.625Z,159.13
2022-08-27T08:35:04.326Z,130.65
2022-08-27T08:37:52.478Z,130.55
2022-08-27T08:40:43.167Z,129.70
2022-08-27T08:43:34.426Z,116.50
2022-08-27T08:46:33.050Z,102.97
2022-08-27T08:49:42.804Z,103.13
2022-08-27T08:52:42.142Z,86.20
2022-08-27T08:55:49.109Z,75.85
2022-08-27T08:58:45.044Z,75.50
2022-08-27T09:01:35.239Z,72.05
2022-08-27T09:04:26.620Z,74.22
2022-08-27T09:07:22.821Z,74.10
2022-08-27T09:10:16.831Z,71.40
2022-08-27T09:13:08.247Z,71.97
2022-08-27T09:15:59.657Z,68.57
2022-08-27T09:18:51.141Z,74.90
2022-08-27T09:21:52.358Z,67.57
2022-08-27T09:24:52.702Z,69.75
2022-08-27T09:27:43.886Z,61.10
2022-08-27T09:30:42.859Z,50.60
2022-08-27T09:33:43.743Z,49.45
2022-08-27T09:36:52.295Z,53.85
2022-08-27T09:39:48.271Z,44.63
2022-08-27T09:42:40.133Z,46.35
2022-08-27T09:45:30.763Z,45.13
2022-08-27T09:48:21.301Z,46.90
2022-08-27T09:51:12.597Z,41.97
2022-08-27T09:54:04.240Z,44.05
2022-08-27T09:56:52.278Z,47.60
2022-08-27T09:59:53.795Z,47.38
2022-08-27T10:02:50.887Z,48.35
2022-08-27T10:05:43.717Z,48.83
2022-08-27T10:08:39.656Z,47.10
2022-08-27T10:11:33.693Z,47.13
2022-08-27T10:14:27.374Z,43.97
2022-08-27T10:17:25.067Z,40.55
2022-08-27T10:20:20.350Z,38.90
2022-08-27T10:23:26.496Z,39.88
2022-08-27T10:26:21.654Z,40.05
2022-08-27T10:29:22.042Z,38.88
2022-08-27T10:32:25.548Z,41.95
2022-08-27T10:35:17.818Z,35.97
2022-08-27T10:38:14.754Z,38.13
2022-08-27T10:41:09.645Z,36.60
2022-08-27T10:44:16.832Z,31.63
2022-08-27T10:47:13.927Z,31.98
2022-08-27T10:50:06.570Z,33.20
2022-08-27T10:53:00.794Z,35.72
2022-08-27T10:55:53.076Z,32.35
2022-08-27T10:58:50.983Z,32.22
2022-08-27T11:01:49.129Z,30.52
2022-08-27T11:04:42.667Z,28.75
2022-08-27T11:07:33.424Z,32.28
2022-08-27T11:10:26.454Z,32.88
2022-08-27T11:13:20.274Z,30.45
2022-08-27T11:16:17.126Z,31.75
2022-08-27T11:19:13.946Z,28.85
2022-08-27T11:22:12.290Z,29.58
2022-08-27T11:25:15.017Z,28.05
2022-08-27T11:28:05.586Z,27.30
2022-08-27T11:31:00.709Z,27.02
2022-08-27T11:33:58.069Z,26.92
2022-08-27T11:37:07.745Z,24.48
2022-08-27T11:40:18.759Z,23.00
2022-08-27T11:43:10.301Z,23.42
2022-08-27T11:46:01.154Z,24.55
2022-08-27T11:48:59.044Z,24.13
2022-08-27T11:51:59.825Z,21.33
2022-08-27T11:54:50.945Z,18.95
2022-08-27T11:57:40.125Z,19.58
2022-08-27T12:00:33.456Z,20.98
2022-08-27T12:03:29.209Z,22.08
2022-08-27T12:06:26.598Z,18.35
2022-08-27T12:09:20.379Z,17.77
2022-08-27T12:12:16.338Z,17.17
2022-08-27T12:15:07.207Z,18.70
2022-08-27T12:18:01.144Z,19.35
2022-08-27T12:20:58.714Z,19.63
2022-08-27T12:23:57.596Z,18.13
2022-08-27T12:26:58.605Z,19.25
2022-08-27T12:29:50.777Z,18.38
2022-08-27T12:32:40.960Z,18.80
2022-08-27T12:35:34.067Z,21.33
2022-08-27T12:38:34.920Z,19.42
2022-08-27T12:41:28.677Z,20.02
2022-08-27T12:44:25.884Z,21.50
2022-08-27T12:47:16.949Z,21.05
2022-08-27T12:50:07.278Z,20.95
2022-08-27T12:53:18.001Z,21.45
2022-08-27T12:56:39.728Z,22.20
2022-08-27T12:59:54.911Z,20.98
2022-08-27T13:03:19.751Z,20.98
2022-08-27T13:06:17.912Z,21.10
2022-08-27T13:09:08.515Z,21.85
2022-08-27T13:11:57.487Z,20.95
2022-08-27T13:14:49.646Z,21.70
2022-08-27T13:17:47.239Z,21.38
2022-08-27T13:20:38.584Z,23.33
2022-08-27T13:23:28.002Z,22.63
2022-08-27T13:26:21.796Z,23.08
2022-08-27T13:29:10.483Z,24.08
2022-08-27T13:32:01.394Z,23.13
2022-08-27T13:34:50.483Z,24.60
2022-08-27T13:37:44.573Z,24.48
2022-08-27T13:40:34.917Z,23.55
2022-08-27T13:43:31.433Z,23.15
2022-08-27T13:46:24.784Z,23.20
2022-08-27T13:49:22.384Z,23.60
2022-08-27T13:52:24.318Z,25.05
2022-08-27T13:55:17.287Z,23.77
2022-08-27T13:58:14.939Z,22.80
2022-08-27T14:01:12.191Z,24.55
2022-08-27T14:04:04.082Z,24.10
2022-08-27T14:06:56.119Z,21.92
2022-08-27T14:09:54.213Z,23.38
2022-08-27T14:12:43.213Z,24.63
2022-08-27T14:15:34.143Z,23.77
2022-08-27T14:18:37.116Z,24.48
2022-08-27T14:21:35.102Z,25.23
2022-08-27T14:24:24.463Z,24.85
2022-08-27T14:27:15.968Z,26.65
2022-08-27T14:30:05.447Z,27.10
2022-08-27T14:32:56.253Z,27.75
2022-08-27T14:35:46.144Z,27.30
2022-08-27T14:38:41.039Z,27.88
2022-08-27T14:41:30.515Z,27.08
2022-08-27T14:44:21.154Z,27.08
2022-08-27T14:47:10.520Z,25.65
2022-08-27T14:49:58.822Z,26.98
2022-08-27T14:52:46.744Z,26.25
2022-08-27T14:55:34.729Z,27.08
2022-08-27T14:58:24.033Z,27.20
2022-08-27T15:01:12.703Z,26.67
2022-08-27T15:04:00.660Z,27.70
2022-08-27T15:06:48.579Z,26.65
2022-08-27T15:09:36.708Z,27.17
2022-08-27T15:12:26.604Z,27.35
2022-08-27T15:15:17.420Z,27.73
2022-08-27T15:18:05.806Z,26.58
2022-08-27T15:20:53.881Z,24.05
2022-08-27T15:23:42.066Z,22.83
2022-08-27T15:26:30.653Z,22.63
2022-08-27T15:29:18.791Z,24.08
2022-08-27T15:32:11.331Z,23.88
2022-08-27T15:35:01.982Z,24.52
2022-08-27T15:37:50.381Z,25.73
2022-08-27T15:40:38.501Z,24.75
2022-08-27T15:43:27.554Z,25.98
2022-08-27T15:46:15.726Z,27.23
2022-08-27T15:49:06.438Z,26.77
2022-08-27T15:51:55.362Z,27.42
2022-08-27T15:54:49.076Z,27.13
2022-08-27T15:57:37.082Z,28.60
2022-08-27T16:00:26.050Z,26.92
2022-08-27T16:03:15.791Z,27.42
2022-08-27T16:06:06.067Z,28.83
2022-08-27T16:08:54.210Z,28.02
2022-08-27T16:11:42.231Z,27.85
2022-08-27T16:14:30.485Z,29.42
2022-08-27T16:17:21.023Z,28.10
2022-08-27T16:20:12.333Z,31.85
2022-08-27T16:23:01.788Z,33.42
2022-08-27T16:25:49.830Z,34.38
2022-08-27T16:28:38.204Z,33.17
2022-08-27T16:31:26.385Z,32.95
2022-08-27T16:34:17.747Z,33.95
2022-08-27T16:37:05.794Z,32.63
2022-08-27T16:39:55.180Z,35.80
2022-08-27T16:42:45.694Z,36.45
2022-08-27T16:45:33.663Z,34.15
2022-08-27T16:48:39.536Z,37.00
2022-08-27T16:51:32.678Z,36.80
2022-08-27T16:54:22.474Z,37.45
2022-08-27T16:57:11.846Z,34.03
2022-08-27T16:59:59.837Z,35.47
2022-08-27T17:02:48.209Z,34.10
2022-08-27T17:05:36.375Z,38.85
2022-08-27T17:08:27.266Z,38.20
2022-08-27T17:11:17.552Z,40.30
2022-08-27T17:14:07.673Z,39.08
2022-08-27T17:16:55.677Z,37.03
2022-08-27T17:19:43.763Z,36.53
2022-08-27T17:22:31.849Z,36.97
2022-08-27T17:25:20.068Z,38.85
2022-08-27T17:28:10.443Z,34.55
2022-08-27T17:31:02.048Z,37.45
2022-08-27T17:33:53.081Z,45.67
2022-08-27T17:36:41.080Z,46.15
2022-08-27T17:39:32.497Z,51.10
2022-08-27T17:42:20.508Z,57.35
2022-08-27T17:45:10.048Z,65.68
2022-08-27T17:47:59.699Z,58.42
2022-08-27T17:50:53.907Z,56.17
2022-08-27T17:53:47.033Z,58.00
2022-08-27T17:56:37.081Z,53.28
2022-08-27T17:59:26.073Z,58.25
2022-08-27T18:02:21.179Z,59.30
2022-08-27T18:05:13.088Z,65.57
2022-08-27T18:08:01.237Z,67.43
2022-08-27T18:10:49.404Z,72.55
2022-08-27T18:13:37.676Z,77.60
2022-08-27T18:16:25.821Z,77.32
2022-08-27T18:19:14.224Z,90.82
2022-08-27T18:22:04.186Z,91.13
2022-08-27T18:24:52.142Z,100.38
2022-08-27T18:27:43.770Z,106.18
2022-08-27T18:30:32.159Z,100.38
2022-08-27T18:33:20.188Z,111.80
2022-08-27T18:36:08.641Z,107.57
2022-08-27T18:38:58.070Z,116.95
2022-08-27T18:41:46.189Z,117.45
2022-08-27T18:44:37.440Z,124.82
2022-08-27T18:47:25.554Z,123.53
2022-08-27T18:50:17.313Z,132.88
2022-08-27T18:53:05.809Z,134.63
2022-08-27T18:55:55.524Z,135.75
2022-08-27T18:58:43.589Z,135.52
2022-08-27T19:01:31.868Z,140.25
2022-08-27T19:04:20.040Z,150.95
2022-08-27T19:07:08.275Z,152.60
2022-08-27T19:09:56.483Z,145.93
2022-08-27T19:12:46.810Z,159.05
2022-08-27T19:15:35.160Z,167.05
2022-08-27T19:18:26.058Z,163.18
2022-08-27T19:21:14.263Z,170.55
2022-08-27T19:24:04.186Z,164.05
2022-08-27T19:26:53.454Z,175.43
2022-08-27T19:29:42.879Z,165.30
2022-08-27T19:32:31.063Z,180.00
2022-08-27T19:35:19.395Z,157.95
2022-08-27T19:38:08.746Z,159.35
2022-08-27T19:40:57.129Z,171.15
2022-08-27T19:43:45.944Z,160.05
2022-08-27T19:46:37.766Z,167.85
2022-08-27T19:49:26.052Z,167.18
2022-08-27T19:52:14.452Z,158.70
2022-08-27T19:55:13.743Z,165.30
2022-08-27T19:58:02.373Z,162.55
2022-08-27T20:00:50.365Z,160.88
2022-08-27T20:03:39.889Z,163.63
2022-08-27T20:06:28.311Z,162.13
2022-08-27T20:09:17.911Z,152.25
2022-08-27T20:12:06.348Z,148.02
2022-08-27T20:14:54.330Z,162.52
2022-08-27T20:17:43.978Z,162.10
2022-08-27T20:20:35.221Z,147.55
2022-08-27T20:23:23.247Z,157.80
2022-08-27T20:26:13.254Z,161.60
2022-08-27T20:29:02.213Z,156.60
2022-08-27T20:31:50.736Z,146.85
2022-08-27T20:34:38.743Z,154.93
2022-08-27T20:37:28.059Z,155.60
2022-08-27T20:40:19.443Z,155.75
2022-08-27T20:43:07.531Z,162.18
2022-08-27T20:45:55.584Z,158.70
2022-08-27T20:48:43.673Z,139.52
2022-08-27T20:51:31.934Z,151.45
2022-08-27T20:54:41.772Z,143.27
2022-08-27T20:57:29.900Z,144.23
2022-08-27T21:00:20.170Z,145.93
2022-08-27T21:03:08.420Z,145.07
2022-08-27T21:05:56.419Z,143.77
2022-08-27T21:08:44.431Z,144.40
2022-08-27T21:11:33.975Z,138.82
2022-08-27T21:14:21.942Z,131.63
2022-08-27T21:17:11.617Z,129.02
2022-08-27T21:19:59.775Z,131.07
2022-08-27T21:22:47.787Z,134.20
2022-08-27T21:25:36.097Z,127.25
2022-08-27T21:28:25.383Z,131.10
2022-08-27T21:31:13.482Z,134.02
2022-08-27T21:34:01.526Z,134.02
2022-08-27T21:36:49.540Z,126.57
2022-08-27T21:39:37.731Z,128.05
2022-08-27T21:42:25.771Z,127.43
2022-08-27T21:45:15.643Z,133.38
2022-08-27T21:48:07.921Z,132.43
2022-08-27T21:50:56.418Z,130.38
2022-08-27T21:53:45.322Z,131.70
2022-08-27T21:56:33.357Z,137.07
2022-08-27T21:59:21.820Z,132.70
2022-08-27T22:02:35.757Z,136.75
2022-08-27T22:05:19.664Z,131.63
2022-08-27T22:08:08.006Z,137.93
2022-08-27T22:10:58.709Z,130.10
2022-08-27T22:13:47.124Z,137.05
2022-08-27T22:16:35.181Z,137.20
2022-08-27T22:19:24.773Z,133.90
2022-08-27T22:22:12.751Z,138.68
2022-08-27T22:25:00.809Z,137.02
2022-08-27T22:27:48.803Z,137.93
2022-08-27T22:30:36.894Z,133.90
2022-08-27T22:33:24.996Z,142.80
2022-08-27T22:36:14.331Z,153.07
2022-08-27T22:39:03.747Z,152.15
2022-08-27T22:41:52.364Z,161.93
2022-08-27T22:44:40.432Z,155.30
2022-08-27T22:47:28.670Z,158.10
2022-08-27T22:50:17.007Z,162.27
2022-08-27T22:53:06.370Z,156.48
2022-08-27T22:55:56.231Z,157.57
2022-08-27T22:58:46.242Z,171.45
2022-08-27T23:01:36.249Z,161.45
2022-08-27T23:04:39.165Z,169.73
2022-08-27T23:07:33.550Z,171.32
2022-08-27T23:10:25.047Z,174.48
2022-08-27T23:13:14.031Z,173.80
2022-08-27T23:16:03.006Z,166.85
2022-08-27T23:18:51.147Z,169.65
2022-08-27T23:21:39.223Z,175.18
2022-08-27T23:24:27.313Z,158.48
2022-08-27T23:27:30.640Z,164.88
2022-08-27T23:30:19.242Z,155.35
2022-08-27T23:33:07.272Z,142.02
2022-08-27T23:35:55.259Z,163.05
2022-08-27T23:38:43.306Z,158.63
2022-08-27T23:41:31.273Z,150.35
2022-08-27T23:44:20.621Z,148.57
2022-08-27T23:47:08.660Z,148.48
2022-08-27T23:49:56.642Z,148.02
2022-08-27T23:52:44.826Z,145.10
2022-08-27T23:55:33.432Z,159.18
2022-08-27T23:58:21.677Z,157.80
